sensor_id;sensor_type;location;lat;lon;timestamp;temperature;humidity
27188;DHT22;14708;50.872;5.306;2023-09-19T00:00:34;24.10;63.40
27188;DHT22;14708;50.872;5.306;2023-09-19T00:03:01;24.10;63.30
27188;DHT22;14708;50.872;5.306;2023-09-19T00:05:28;24.10;63.50
27188;DHT22;14708;50.872;5.306;2023-09-19T00:07:56;24.10;63.50
27188;DHT22;14708;50.872;5.306;2023-09-19T00:10:25;24.10;63.40
27188;DHT22;14708;50.872;5.306;2023-09-19T00:12:56;24.20;63.50
27188;DHT22;14708;50.872;5.306;2023-09-19T00:15:26;24.10;63.50
27188;DHT22;14708;50.872;5.306;2023-09-19T00:17:55;24.10;63.40
27188;DHT22;14708;50.872;5.306;2023-09-19T00:20:21;24.10;63.50
27188;DHT22;14708;50.872;5.306;2023-09-19T00:22:49;24.10;63.40
27188;DHT22;14708;50.872;5.306;2023-09-19T00:25:17;24.10;63.50
27188;DHT22;14708;50.872;5.306;2023-09-19T00:27:43;24.10;63.60
27188;DHT22;14708;50.872;5.306;2023-09-19T00:30:11;24.10;63.40
27188;DHT22;14708;50.872;5.306;2023-09-19T00:32:45;24.00;63.20
27188;DHT22;14708;50.872;5.306;2023-09-19T00:35:15;24.10;63.50
27188;DHT22;14708;50.872;5.306;2023-09-19T00:37:42;24.10;63.30
27188;DHT22;14708;50.872;5.306;2023-09-19T00:40:08;24.10;63.30
27188;DHT22;14708;50.872;5.306;2023-09-19T00:42:39;24.10;63.30
27188;DHT22;14708;50.872;5.306;2023-09-19T00:45:06;24.10;63.30
27188;DHT22;14708;50.872;5.306;2023-09-19T00:47:32;24.00;63.20
27188;DHT22;14708;50.872;5.306;2023-09-19T00:49:58;24.10;63.40
27188;DHT22;14708;50.872;5.306;2023-09-19T00:52:24;24.10;63.50
27188;DHT22;14708;50.872;5.306;2023-09-19T00:54:50;24.00;63.40
27188;DHT22;14708;50.872;5.306;2023-09-19T00:57:17;24.00;63.40
27188;DHT22;14708;50.872;5.306;2023-09-19T00:59:45;24.00;63.50
27188;DHT22;14708;50.872;5.306;2023-09-19T01:02:15;24.00;63.50
27188;DHT22;14708;50.872;5.306;2023-09-19T01:04:42;24.00;63.30
27188;DHT22;14708;50.872;5.306;2023-09-19T01:07:08;24.00;63.20
27188;DHT22;14708;50.872;5.306;2023-09-19T01:09:35;24.00;63.30
27188;DHT22;14708;50.872;5.306;2023-09-19T01:12:02;24.00;63.50
27188;DHT22;14708;50.872;5.306;2023-09-19T01:15:09;24.00;63.40
27188;DHT22;14708;50.872;5.306;2023-09-19T01:17:52;24.00;63.40
27188;DHT22;14708;50.872;5.306;2023-09-19T01:20:45;24.00;63.30
27188;DHT22;14708;50.872;5.306;2023-09-19T01:23:20;24.00;63.40
27188;DHT22;14708;50.872;5.306;2023-09-19T01:29:23;24.00;63.40
27188;DHT22;14708;50.872;5.306;2023-09-19T01:31:40;24.00;63.30
27188;DHT22;14708;50.872;5.306;2023-09-19T01:34:08;24.00;63.30
27188;DHT22;14708;50.872;5.306;2023-09-19T01:36:38;24.00;63.30
27188;DHT22;14708;50.872;5.306;2023-09-19T01:39:08;24.00;63.40
27188;DHT22;14708;50.872;5.306;2023-09-19T01:41:47;24.00;63.40
27188;DHT22;14708;50.872;5.306;2023-09-19T01:44:31;24.00;63.60
27188;DHT22;14708;50.872;5.306;2023-09-19T01:47:08;24.00;63.60
27188;DHT22;14708;50.872;5.306;2023-09-19T01:49:55;24.00;63.50
27188;DHT22;14708;50.872;5.306;2023-09-19T01:52:22;24.00;63.40
27188;DHT22;14708;50.872;5.306;2023-09-19T01:54:52;23.90;63.30
27188;DHT22;14708;50.872;5.306;2023-09-19T01:57:29;24.00;63.40
27188;DHT22;14708;50.872;5.306;2023-09-19T02:00:15;23.90;63.20
27188;DHT22;14708;50.872;5.306;2023-09-19T02:02:44;24.00;63.30
27188;DHT22;14708;50.872;5.306;2023-09-19T02:05:10;23.90;63.30
27188;DHT22;14708;50.872;5.306;2023-09-19T02:07:38;23.90;63.40
27188;DHT22;14708;50.872;5.306;2023-09-19T02:10:05;23.90;63.40
27188;DHT22;14708;50.872;5.306;2023-09-19T02:12:32;23.90;63.30
27188;DHT22;14708;50.872;5.306;2023-09-19T02:15:01;23.90;63.40
27188;DHT22;14708;50.872;5.306;2023-09-19T02:17:26;23.90;63.40
27188;DHT22;14708;50.872;5.306;2023-09-19T02:19:54;23.90;63.40
27188;DHT22;14708;50.872;5.306;2023-09-19T02:22:23;23.90;63.30
27188;DHT22;14708;50.872;5.306;2023-09-19T02:24:50;23.90;63.40
27188;DHT22;14708;50.872;5.306;2023-09-19T02:27:16;23.90;63.40
27188;DHT22;14708;50.872;5.306;2023-09-19T02:29:43;23.90;63.40
27188;DHT22;14708;50.872;5.306;2023-09-19T02:32:09;23.90;63.30
27188;DHT22;14708;50.872;5.306;2023-09-19T02:34:36;23.90;63.30
27188;DHT22;14708;50.872;5.306;2023-09-19T02:37:11;23.90;63.20
27188;DHT22;14708;50.872;5.306;2023-09-19T02:39:38;23.90;63.10
27188;DHT22;14708;50.872;5.306;2023-09-19T02:42:04;23.90;63.10
27188;DHT22;14708;50.872;5.306;2023-09-19T02:44:30;23.90;63.30
27188;DHT22;14708;50.872;5.306;2023-09-19T02:46:56;23.90;63.30
27188;DHT22;14708;50.872;5.306;2023-09-19T02:49:22;23.90;63.30
27188;DHT22;14708;50.872;5.306;2023-09-19T02:51:48;23.90;63.20
27188;DHT22;14708;50.872;5.306;2023-09-19T02:54:14;23.90;63.30
27188;DHT22;14708;50.872;5.306;2023-09-19T02:56:41;23.90;63.20
27188;DHT22;14708;50.872;5.306;2023-09-19T02:59:07;23.80;63.20
27188;DHT22;14708;50.872;5.306;2023-09-19T03:01:35;23.80;63.30
27188;DHT22;14708;50.872;5.306;2023-09-19T03:04:02;23.90;63.50
27188;DHT22;14708;50.872;5.306;2023-09-19T03:06:28;23.80;63.30
27188;DHT22;14708;50.872;5.306;2023-09-19T03:08:56;23.80;63.20
27188;DHT22;14708;50.872;5.306;2023-09-19T03:11:22;23.80;63.30
27188;DHT22;14708;50.872;5.306;2023-09-19T03:13:55;23.80;63.30
27188;DHT22;14708;50.872;5.306;2023-09-19T03:16:20;23.80;63.30
27188;DHT22;14708;50.872;5.306;2023-09-19T03:18:50;23.80;63.30
27188;DHT22;14708;50.872;5.306;2023-09-19T03:21:16;23.80;63.10
27188;DHT22;14708;50.872;5.306;2023-09-19T03:23:43;23.80;63.20
27188;DHT22;14708;50.872;5.306;2023-09-19T03:26:11;23.90;63.30
27188;DHT22;14708;50.872;5.306;2023-09-19T03:28:38;23.80;63.20
27188;DHT22;14708;50.872;5.306;2023-09-19T03:31:05;23.80;63.20
27188;DHT22;14708;50.872;5.306;2023-09-19T03:33:31;23.80;63.10
27188;DHT22;14708;50.872;5.306;2023-09-19T03:35:58;23.80;63.00
27188;DHT22;14708;50.872;5.306;2023-09-19T03:38:25;23.80;63.20
27188;DHT22;14708;50.872;5.306;2023-09-19T03:40:51;23.80;63.20
27188;DHT22;14708;50.872;5.306;2023-09-19T03:43:16;23.80;63.20
27188;DHT22;14708;50.872;5.306;2023-09-19T03:45:43;23.80;63.10
27188;DHT22;14708;50.872;5.306;2023-09-19T03:48:13;23.80;63.20
27188;DHT22;14708;50.872;5.306;2023-09-19T03:50:39;23.80;63.20
27188;DHT22;14708;50.872;5.306;2023-09-19T03:53:05;23.80;63.30
27188;DHT22;14708;50.872;5.306;2023-09-19T03:55:32;23.70;63.20
27188;DHT22;14708;50.872;5.306;2023-09-19T03:58:01;23.80;63.40
27188;DHT22;14708;50.872;5.306;2023-09-19T04:00:26;23.80;63.20
27188;DHT22;14708;50.872;5.306;2023-09-19T04:02:52;23.80;63.00
27188;DHT22;14708;50.872;5.306;2023-09-19T04:05:19;23.80;63.10
27188;DHT22;14708;50.872;5.306;2023-09-19T04:07:44;23.80;63.20
27188;DHT22;14708;50.872;5.306;2023-09-19T04:10:10;23.80;62.90
27188;DHT22;14708;50.872;5.306;2023-09-19T04:12:40;23.80;63.00
27188;DHT22;14708;50.872;5.306;2023-09-19T04:15:06;23.80;63.00
27188;DHT22;14708;50.872;5.306;2023-09-19T04:17:33;23.80;62.60
27188;DHT22;14708;50.872;5.306;2023-09-19T04:19:59;23.80;62.60
27188;DHT22;14708;50.872;5.306;2023-09-19T04:22:25;23.80;62.80
27188;DHT22;14708;50.872;5.306;2023-09-19T04:24:51;23.80;63.30
27188;DHT22;14708;50.872;5.306;2023-09-19T04:27:16;23.80;63.40
27188;DHT22;14708;50.872;5.306;2023-09-19T04:29:42;23.70;63.30
27188;DHT22;14708;50.872;5.306;2023-09-19T04:32:08;23.80;63.30
27188;DHT22;14708;50.872;5.306;2023-09-19T04:34:36;23.80;63.20
27188;DHT22;14708;50.872;5.306;2023-09-19T04:37:01;23.80;63.10
27188;DHT22;14708;50.872;5.306;2023-09-19T04:39:29;23.70;63.20
27188;DHT22;14708;50.872;5.306;2023-09-19T04:41:54;23.80;63.40
27188;DHT22;14708;50.872;5.306;2023-09-19T04:44:20;23.80;63.20
27188;DHT22;14708;50.872;5.306;2023-09-19T04:46:46;23.70;63.40
27188;DHT22;14708;50.872;5.306;2023-09-19T04:49:12;23.70;63.20
27188;DHT22;14708;50.872;5.306;2023-09-19T04:51:38;23.70;63.20
27188;DHT22;14708;50.872;5.306;2023-09-19T04:54:05;23.70;63.10
27188;DHT22;14708;50.872;5.306;2023-09-19T04:56:31;23.70;63.20
27188;DHT22;14708;50.872;5.306;2023-09-19T04:58:58;23.70;63.10
27188;DHT22;14708;50.872;5.306;2023-09-19T05:01:24;23.80;62.60
27188;DHT22;14708;50.872;5.306;2023-09-19T05:03:50;23.70;62.50
27188;DHT22;14708;50.872;5.306;2023-09-19T05:06:21;23.80;62.50
27188;DHT22;14708;50.872;5.306;2023-09-19T05:08:47;23.70;62.60
27188;DHT22;14708;50.872;5.306;2023-09-19T05:11:17;23.70;62.60
27188;DHT22;14708;50.872;5.306;2023-09-19T05:13:43;23.70;62.40
27188;DHT22;14708;50.872;5.306;2023-09-19T05:16:08;23.70;62.70
27188;DHT22;14708;50.872;5.306;2023-09-19T05:18:35;23.70;62.70
27188;DHT22;14708;50.872;5.306;2023-09-19T05:21:04;23.70;62.40
27188;DHT22;14708;50.872;5.306;2023-09-19T05:23:30;23.70;62.40
27188;DHT22;14708;50.872;5.306;2023-09-19T05:25:56;23.70;62.30
27188;DHT22;14708;50.872;5.306;2023-09-19T05:28:24;23.70;62.40
27188;DHT22;14708;50.872;5.306;2023-09-19T05:30:49;23.70;62.40
27188;DHT22;14708;50.872;5.306;2023-09-19T05:33:15;23.70;62.30
27188;DHT22;14708;50.872;5.306;2023-09-19T05:35:41;23.70;62.40
27188;DHT22;14708;50.872;5.306;2023-09-19T05:38:07;23.70;62.50
27188;DHT22;14708;50.872;5.306;2023-09-19T05:40:35;23.70;62.50
27188;DHT22;14708;50.872;5.306;2023-09-19T05:43:01;23.80;62.60
27188;DHT22;14708;50.872;5.306;2023-09-19T05:45:29;23.70;62.30
27188;DHT22;14708;50.872;5.306;2023-09-19T05:47:55;23.70;62.30
27188;DHT22;14708;50.872;5.306;2023-09-19T05:50:29;23.70;62.30
27188;DHT22;14708;50.872;5.306;2023-09-19T05:52:55;23.80;62.20
27188;DHT22;14708;50.872;5.306;2023-09-19T05:55:23;23.80;62.20
27188;DHT22;14708;50.872;5.306;2023-09-19T05:57:54;23.70;62.10
27188;DHT22;14708;50.872;5.306;2023-09-19T06:00:22;23.80;62.10
27188;DHT22;14708;50.872;5.306;2023-09-19T06:02:55;23.80;62.00
27188;DHT22;14708;50.872;5.306;2023-09-19T06:05:25;23.80;61.90
27188;DHT22;14708;50.872;5.306;2023-09-19T06:07:58;23.80;61.80
27188;DHT22;14708;50.872;5.306;2023-09-19T06:10:27;23.80;61.90
27188;DHT22;14708;50.872;5.306;2023-09-19T06:12:54;23.80;61.90
27188;DHT22;14708;50.872;5.306;2023-09-19T06:15:20;23.80;61.80
27188;DHT22;14708;50.872;5.306;2023-09-19T06:17:53;23.80;61.40
27188;DHT22;14708;50.872;5.306;2023-09-19T06:20:22;23.80;59.90
27188;DHT22;14708;50.872;5.306;2023-09-19T06:22:49;23.70;59.10
27188;DHT22;14708;50.872;5.306;2023-09-19T06:25:16;23.70;58.60
27188;DHT22;14708;50.872;5.306;2023-09-19T06:27:45;23.60;58.90
27188;DHT22;14708;50.872;5.306;2023-09-19T06:30:49;23.70;58.00
27188;DHT22;14708;50.872;5.306;2023-09-19T06:33:23;23.70;58.50
27188;DHT22;14708;50.872;5.306;2023-09-19T06:36:04;23.70;58.80
27188;DHT22;14708;50.872;5.306;2023-09-19T06:38:35;23.70;58.90
27188;DHT22;14708;50.872;5.306;2023-09-19T06:41:04;23.70;59.10
27188;DHT22;14708;50.872;5.306;2023-09-19T06:43:31;23.70;58.80
27188;DHT22;14708;50.872;5.306;2023-09-19T06:45:56;23.70;57.40
27188;DHT22;14708;50.872;5.306;2023-09-19T06:48:23;23.70;57.10
27188;DHT22;14708;50.872;5.306;2023-09-19T06:54:08;23.70;55.50
27188;DHT22;14708;50.872;5.306;2023-09-19T06:56:34;23.60;55.50
27188;DHT22;14708;50.872;5.306;2023-09-19T06:59:03;23.70;56.50
27188;DHT22;14708;50.872;5.306;2023-09-19T07:01:31;23.70;56.00
27188;DHT22;14708;50.872;5.306;2023-09-19T07:03:57;23.70;56.30
27188;DHT22;14708;50.872;5.306;2023-09-19T07:06:23;23.70;56.10
27188;DHT22;14708;50.872;5.306;2023-09-19T07:12:14;23.70;56.30
27188;DHT22;14708;50.872;5.306;2023-09-19T07:14:40;23.70;56.40
27188;DHT22;14708;50.872;5.306;2023-09-19T07:17:05;23.70;55.90
27188;DHT22;14708;50.872;5.306;2023-09-19T07:19:37;23.70;55.70
27188;DHT22;14708;50.872;5.306;2023-09-19T07:22:05;23.70;56.50
27188;DHT22;14708;50.872;5.306;2023-09-19T07:24:40;23.70;55.90
27188;DHT22;14708;50.872;5.306;2023-09-19T07:27:06;23.70;55.80
27188;DHT22;14708;50.872;5.306;2023-09-19T07:29:35;23.70;55.90
27188;DHT22;14708;50.872;5.306;2023-09-19T07:32:01;23.70;55.50
27188;DHT22;14708;50.872;5.306;2023-09-19T07:34:26;23.70;54.90
27188;DHT22;14708;50.872;5.306;2023-09-19T07:36:52;23.70;55.70
27188;DHT22;14708;50.872;5.306;2023-09-19T07:39:18;23.80;55.90
27188;DHT22;14708;50.872;5.306;2023-09-19T07:41:43;23.80;55.70
27188;DHT22;14708;50.872;5.306;2023-09-19T07:44:09;23.80;55.60
27188;DHT22;14708;50.872;5.306;2023-09-19T07:46:37;23.80;55.70
27188;DHT22;14708;50.872;5.306;2023-09-19T07:49:03;23.70;55.60
27188;DHT22;14708;50.872;5.306;2023-09-19T07:51:30;23.70;55.80
27188;DHT22;14708;50.872;5.306;2023-09-19T07:53:56;23.70;55.60
27188;DHT22;14708;50.872;5.306;2023-09-19T07:56:21;23.70;55.80
27188;DHT22;14708;50.872;5.306;2023-09-19T07:58:48;23.70;55.90
27188;DHT22;14708;50.872;5.306;2023-09-19T08:01:13;23.70;55.90
27188;DHT22;14708;50.872;5.306;2023-09-19T08:03:40;23.70;55.50
27188;DHT22;14708;50.872;5.306;2023-09-19T08:06:07;23.80;55.50
27188;DHT22;14708;50.872;5.306;2023-09-19T08:08:34;23.80;55.50
27188;DHT22;14708;50.872;5.306;2023-09-19T08:11:04;23.80;55.50
27188;DHT22;14708;50.872;5.306;2023-09-19T08:13:37;23.80;55.40
27188;DHT22;14708;50.872;5.306;2023-09-19T08:16:04;23.80;55.30
27188;DHT22;14708;50.872;5.306;2023-09-19T08:18:30;23.80;55.20
27188;DHT22;14708;50.872;5.306;2023-09-19T08:20:56;23.80;55.20
27188;DHT22;14708;50.872;5.306;2023-09-19T08:23:24;23.90;55.20
27188;DHT22;14708;50.872;5.306;2023-09-19T08:25:49;23.80;55.10
27188;DHT22;14708;50.872;5.306;2023-09-19T08:28:15;23.80;55.10
27188;DHT22;14708;50.872;5.306;2023-09-19T08:30:45;23.80;55.20
27188;DHT22;14708;50.872;5.306;2023-09-19T08:33:11;23.80;55.20
27188;DHT22;14708;50.872;5.306;2023-09-19T08:35:37;23.80;55.00
27188;DHT22;14708;50.872;5.306;2023-09-19T08:38:05;23.80;55.00
27188;DHT22;14708;50.872;5.306;2023-09-19T08:40:32;23.80;54.80
27188;DHT22;14708;50.872;5.306;2023-09-19T08:42:59;23.80;54.80
27188;DHT22;14708;50.872;5.306;2023-09-19T08:45:26;23.80;55.00
27188;DHT22;14708;50.872;5.306;2023-09-19T08:50:35;23.80;54.90
27188;DHT22;14708;50.872;5.306;2023-09-19T08:53:15;23.80;55.00
27188;DHT22;14708;50.872;5.306;2023-09-19T08:55:41;23.90;55.00
27188;DHT22;14708;50.872;5.306;2023-09-19T08:58:10;23.80;55.00
27188;DHT22;14708;50.872;5.306;2023-09-19T09:00:36;23.80;54.90
27188;DHT22;14708;50.872;5.306;2023-09-19T09:03:03;23.90;55.00
27188;DHT22;14708;50.872;5.306;2023-09-19T09:05:32;23.90;54.90
27188;DHT22;14708;50.872;5.306;2023-09-19T09:07:58;23.90;54.80
27188;DHT22;14708;50.872;5.306;2023-09-19T09:10:25;23.90;54.70
27188;DHT22;14708;50.872;5.306;2023-09-19T09:12:52;23.80;54.60
27188;DHT22;14708;50.872;5.306;2023-09-19T09:15:22;23.80;54.70
27188;DHT22;14708;50.872;5.306;2023-09-19T09:17:49;23.90;54.50
27188;DHT22;14708;50.872;5.306;2023-09-19T09:20:20;23.80;54.50
27188;DHT22;14708;50.872;5.306;2023-09-19T09:22:53;23.90;54.70
27188;DHT22;14708;50.872;5.306;2023-09-19T09:25:20;23.80;54.60
27188;DHT22;14708;50.872;5.306;2023-09-19T09:28:02;23.90;54.50
27188;DHT22;14708;50.872;5.306;2023-09-19T09:30:35;23.90;54.30
27188;DHT22;14708;50.872;5.306;2023-09-19T09:33:10;23.90;54.40
27188;DHT22;14708;50.872;5.306;2023-09-19T09:35:49;23.90;54.20
27188;DHT22;14708;50.872;5.306;2023-09-19T09:38:21;23.90;54.40
27188;DHT22;14708;50.872;5.306;2023-09-19T09:40:54;23.90;54.20
27188;DHT22;14708;50.872;5.306;2023-09-19T09:43:34;23.90;54.10
27188;DHT22;14708;50.872;5.306;2023-09-19T09:49:03;23.90;53.90
27188;DHT22;14708;50.872;5.306;2023-09-19T09:51:48;23.90;53.70
27188;DHT22;14708;50.872;5.306;2023-09-19T09:54:24;24.00;53.00
27188;DHT22;14708;50.872;5.306;2023-09-19T09:56:54;24.00;53.20
27188;DHT22;14708;50.872;5.306;2023-09-19T09:59:50;24.00;53.40
27188;DHT22;14708;50.872;5.306;2023-09-19T10:02:21;24.00;53.10
27188;DHT22;14708;50.872;5.306;2023-09-19T10:04:53;23.90;53.70
27188;DHT22;14708;50.872;5.306;2023-09-19T10:07:35;23.90;53.10
27188;DHT22;14708;50.872;5.306;2023-09-19T10:10:06;23.90;52.90
27188;DHT22;14708;50.872;5.306;2023-09-19T10:12:46;23.90;52.90
27188;DHT22;14708;50.872;5.306;2023-09-19T10:15:15;23.90;52.80
27188;DHT22;14708;50.872;5.306;2023-09-19T10:17:45;23.90;52.90
27188;DHT22;14708;50.872;5.306;2023-09-19T10:20:17;23.90;52.80
27188;DHT22;14708;50.872;5.306;2023-09-19T10:23:06;24.00;51.90
27188;DHT22;14708;50.872;5.306;2023-09-19T10:25:39;24.10;52.20
27188;DHT22;14708;50.872;5.306;2023-09-19T10:28:11;24.20;51.10
27188;DHT22;14708;50.872;5.306;2023-09-19T10:30:46;24.10;50.70
27188;DHT22;14708;50.872;5.306;2023-09-19T10:33:15;24.20;50.80
27188;DHT22;14708;50.872;5.306;2023-09-19T10:35:45;24.20;50.90
27188;DHT22;14708;50.872;5.306;2023-09-19T10:38:12;24.10;50.60
27188;DHT22;14708;50.872;5.306;2023-09-19T10:40:52;24.10;50.60
27188;DHT22;14708;50.872;5.306;2023-09-19T10:43:20;24.00;50.20
27188;DHT22;14708;50.872;5.306;2023-09-19T10:45:48;24.00;50.50
27188;DHT22;14708;50.872;5.306;2023-09-19T10:48:20;24.10;50.40
27188;DHT22;14708;50.872;5.306;2023-09-19T10:51:07;24.10;50.30
27188;DHT22;14708;50.872;5.306;2023-09-19T10:54:04;24.10;50.40
27188;DHT22;14708;50.872;5.306;2023-09-19T10:56:38;24.10;50.00
27188;DHT22;14708;50.872;5.306;2023-09-19T10:59:15;24.20;50.30
27188;DHT22;14708;50.872;5.306;2023-09-19T11:04:29;24.20;49.90
27188;DHT22;14708;50.872;5.306;2023-09-19T11:09:44;24.20;50.20
27188;DHT22;14708;50.872;5.306;2023-09-19T11:14:54;24.30;49.90
27188;DHT22;14708;50.872;5.306;2023-09-19T11:25:56;24.40;49.40
27188;DHT22;14708;50.872;5.306;2023-09-19T11:30:50;24.30;49.60
27188;DHT22;14708;50.872;5.306;2023-09-19T11:36:01;24.30;49.90
27188;DHT22;14708;50.872;5.306;2023-09-19T11:46:27;24.30;49.90
27188;DHT22;14708;50.872;5.306;2023-09-19T11:48:54;24.30;49.70
27188;DHT22;14708;50.872;5.306;2023-09-19T11:51:23;24.30;49.60
27188;DHT22;14708;50.872;5.306;2023-09-19T11:53:56;24.30;49.60
27188;DHT22;14708;50.872;5.306;2023-09-19T11:56:25;24.30;49.90
27188;DHT22;14708;50.872;5.306;2023-09-19T11:58:54;24.30;49.90
27188;DHT22;14708;50.872;5.306;2023-09-19T12:01:31;24.30;49.50
27188;DHT22;14708;50.872;5.306;2023-09-19T12:04:00;24.30;49.40
27188;DHT22;14708;50.872;5.306;2023-09-19T12:06:26;24.30;49.30
27188;DHT22;14708;50.872;5.306;2023-09-19T12:08:52;24.30;49.30
27188;DHT22;14708;50.872;5.306;2023-09-19T12:11:23;24.30;49.30
27188;DHT22;14708;50.872;5.306;2023-09-19T12:13:50;24.40;49.40
27188;DHT22;14708;50.872;5.306;2023-09-19T12:16:18;24.40;49.00
27188;DHT22;14708;50.872;5.306;2023-09-19T12:18:48;24.30;49.30
27188;DHT22;14708;50.872;5.306;2023-09-19T12:21:23;24.30;49.30
27188;DHT22;14708;50.872;5.306;2023-09-19T12:26:27;24.30;48.90
27188;DHT22;14708;50.872;5.306;2023-09-19T12:28:54;24.30;48.90
27188;DHT22;14708;50.872;5.306;2023-09-19T12:31:21;24.30;48.90
27188;DHT22;14708;50.872;5.306;2023-09-19T12:33:53;24.40;48.60
27188;DHT22;14708;50.872;5.306;2023-09-19T12:36:23;24.40;48.60
27188;DHT22;14708;50.872;5.306;2023-09-19T12:38:59;24.40;48.80
27188;DHT22;14708;50.872;5.306;2023-09-19T12:41:28;24.40;48.70
27188;DHT22;14708;50.872;5.306;2023-09-19T12:43:54;24.40;48.70
27188;DHT22;14708;50.872;5.306;2023-09-19T12:46:23;24.40;48.90
27188;DHT22;14708;50.872;5.306;2023-09-19T12:49:16;24.30;49.00
27188;DHT22;14708;50.872;5.306;2023-09-19T12:51:46;24.30;48.70
27188;DHT22;14708;50.872;5.306;2023-09-19T12:54:12;24.30;48.60
27188;DHT22;14708;50.872;5.306;2023-09-19T12:56:41;24.30;48.60
27188;DHT22;14708;50.872;5.306;2023-09-19T12:59:12;24.30;49.30
27188;DHT22;14708;50.872;5.306;2023-09-19T13:01:42;24.30;49.00
27188;DHT22;14708;50.872;5.306;2023-09-19T13:04:20;24.30;48.90
27188;DHT22;14708;50.872;5.306;2023-09-19T13:06:54;24.30;48.80
27188;DHT22;14708;50.872;5.306;2023-09-19T13:09:22;24.40;48.50
27188;DHT22;14708;50.872;5.306;2023-09-19T13:11:50;24.40;48.50
27188;DHT22;14708;50.872;5.306;2023-09-19T13:14:24;24.30;48.40
27188;DHT22;14708;50.872;5.306;2023-09-19T13:17:06;24.30;48.60
27188;DHT22;14708;50.872;5.306;2023-09-19T13:19:46;24.30;48.60
27188;DHT22;14708;50.872;5.306;2023-09-19T13:22:44;24.30;49.10
27188;DHT22;14708;50.872;5.306;2023-09-19T13:25:16;24.20;48.90
27188;DHT22;14708;50.872;5.306;2023-09-19T13:27:47;24.30;48.90
27188;DHT22;14708;50.872;5.306;2023-09-19T13:30:14;24.30;48.80
27188;DHT22;14708;50.872;5.306;2023-09-19T13:32:40;24.30;48.90
27188;DHT22;14708;50.872;5.306;2023-09-19T13:35:08;24.30;48.70
27188;DHT22;14708;50.872;5.306;2023-09-19T13:37:40;24.30;49.00
27188;DHT22;14708;50.872;5.306;2023-09-19T13:40:11;24.30;49.10
27188;DHT22;14708;50.872;5.306;2023-09-19T13:42:38;24.30;48.90
27188;DHT22;14708;50.872;5.306;2023-09-19T13:45:04;24.30;48.90
27188;DHT22;14708;50.872;5.306;2023-09-19T13:47:30;24.30;48.90
27188;DHT22;14708;50.872;5.306;2023-09-19T13:49:56;24.30;49.10
27188;DHT22;14708;50.872;5.306;2023-09-19T13:52:22;24.30;49.30
27188;DHT22;14708;50.872;5.306;2023-09-19T13:54:51;24.20;49.60
27188;DHT22;14708;50.872;5.306;2023-09-19T13:57:18;24.20;49.40
27188;DHT22;14708;50.872;5.306;2023-09-19T13:59:44;24.30;49.20
27188;DHT22;14708;50.872;5.306;2023-09-19T14:02:09;24.30;49.10
27188;DHT22;14708;50.872;5.306;2023-09-19T14:04:35;24.40;49.20
27188;DHT22;14708;50.872;5.306;2023-09-19T14:07:02;24.40;49.10
27188;DHT22;14708;50.872;5.306;2023-09-19T14:09:27;24.30;50.00
27188;DHT22;14708;50.872;5.306;2023-09-19T14:11:53;24.40;49.70
27188;DHT22;14708;50.872;5.306;2023-09-19T14:14:19;24.20;50.10
27188;DHT22;14708;50.872;5.306;2023-09-19T14:16:47;24.10;50.60
27188;DHT22;14708;50.872;5.306;2023-09-19T14:19:14;24.00;50.80
27188;DHT22;14708;50.872;5.306;2023-09-19T14:21:42;24.00;51.10
27188;DHT22;14708;50.872;5.306;2023-09-19T14:24:08;24.00;51.30
27188;DHT22;14708;50.872;5.306;2023-09-19T14:26:38;24.00;51.60
27188;DHT22;14708;50.872;5.306;2023-09-19T14:29:05;24.00;51.70
27188;DHT22;14708;50.872;5.306;2023-09-19T14:31:33;24.00;51.70
27188;DHT22;14708;50.872;5.306;2023-09-19T14:33:59;23.90;52.10
27188;DHT22;14708;50.872;5.306;2023-09-19T14:36:26;23.90;52.10
27188;DHT22;14708;50.872;5.306;2023-09-19T14:38:55;23.90;52.30
27188;DHT22;14708;50.872;5.306;2023-09-19T14:41:22;23.90;52.20
27188;DHT22;14708;50.872;5.306;2023-09-19T14:43:50;23.80;52.00
27188;DHT22;14708;50.872;5.306;2023-09-19T14:46:15;23.80;52.20
27188;DHT22;14708;50.872;5.306;2023-09-19T14:48:41;23.80;52.30
27188;DHT22;14708;50.872;5.306;2023-09-19T14:51:08;23.80;52.10
27188;DHT22;14708;50.872;5.306;2023-09-19T14:53:35;23.80;52.00
27188;DHT22;14708;50.872;5.306;2023-09-19T14:56:04;23.90;52.20
27188;DHT22;14708;50.872;5.306;2023-09-19T14:58:31;23.90;52.20
27188;DHT22;14708;50.872;5.306;2023-09-19T15:01:07;23.90;51.90
27188;DHT22;14708;50.872;5.306;2023-09-19T15:03:34;23.80;52.20
27188;DHT22;14708;50.872;5.306;2023-09-19T15:06:05;23.90;52.20
27188;DHT22;14708;50.872;5.306;2023-09-19T15:08:37;23.80;52.30
27188;DHT22;14708;50.872;5.306;2023-09-19T15:11:09;23.80;52.40
27188;DHT22;14708;50.872;5.306;2023-09-19T15:13:35;23.90;52.30
27188;DHT22;14708;50.872;5.306;2023-09-19T15:16:11;23.90;52.10
27188;DHT22;14708;50.872;5.306;2023-09-19T15:18:45;24.00;52.10
27188;DHT22;14708;50.872;5.306;2023-09-19T15:21:13;23.90;52.00
27188;DHT22;14708;50.872;5.306;2023-09-19T15:23:40;24.00;52.10
27188;DHT22;14708;50.872;5.306;2023-09-19T15:26:08;23.90;52.30
27188;DHT22;14708;50.872;5.306;2023-09-19T15:28:34;23.90;52.60
27188;DHT22;14708;50.872;5.306;2023-09-19T15:31:26;23.90;52.80
27188;DHT22;14708;50.872;5.306;2023-09-19T15:33:52;23.90;52.90
27188;DHT22;14708;50.872;5.306;2023-09-19T15:36:17;23.90;53.00
27188;DHT22;14708;50.872;5.306;2023-09-19T15:39:03;23.90;53.10
27188;DHT22;14708;50.872;5.306;2023-09-19T15:44:00;23.90;53.30
27188;DHT22;14708;50.872;5.306;2023-09-19T15:46:27;23.90;53.20
27188;DHT22;14708;50.872;5.306;2023-09-19T15:48:53;23.90;53.40
27188;DHT22;14708;50.872;5.306;2023-09-19T15:51:19;23.90;53.50
27188;DHT22;14708;50.872;5.306;2023-09-19T15:53:47;23.90;53.80
27188;DHT22;14708;50.872;5.306;2023-09-19T15:56:14;24.00;53.70
27188;DHT22;14708;50.872;5.306;2023-09-19T15:58:46;24.00;53.70
27188;DHT22;14708;50.872;5.306;2023-09-19T16:01:13;23.90;53.80
27188;DHT22;14708;50.872;5.306;2023-09-19T16:03:42;23.90;53.70
27188;DHT22;14708;50.872;5.306;2023-09-19T16:06:13;24.00;53.80
27188;DHT22;14708;50.872;5.306;2023-09-19T16:08:40;23.90;53.90
27188;DHT22;14708;50.872;5.306;2023-09-19T16:11:07;24.00;54.10
27188;DHT22;14708;50.872;5.306;2023-09-19T16:13:33;24.00;54.30
27188;DHT22;14708;50.872;5.306;2023-09-19T16:15:59;24.00;54.40
27188;DHT22;14708;50.872;5.306;2023-09-19T16:18:24;24.00;54.50
27188;DHT22;14708;50.872;5.306;2023-09-19T16:20:50;24.00;54.60
27188;DHT22;14708;50.872;5.306;2023-09-19T16:23:16;24.00;54.60
27188;DHT22;14708;50.872;5.306;2023-09-19T16:25:41;24.00;54.50
27188;DHT22;14708;50.872;5.306;2023-09-19T16:28:08;24.00;54.70
27188;DHT22;14708;50.872;5.306;2023-09-19T16:30:33;24.00;54.70
27188;DHT22;14708;50.872;5.306;2023-09-19T16:33:00;23.90;54.90